CA-0417 weather

Public forecast

Using degrees Celsius for public forecast. Weather courtesy of forecast.io.

Closest aviation weather report (METAR) to Yarbo Airport

Closest report is Yorkton Municipal Airport, 38.5 nm (71.3 km) NNW. Retrieved 2020/08/13 08:19 UTC (0 seconds ago):

CYQV 130819Z AUTO 31009G15KT 9SM -RA VCTS FEW060 OVC100 17/16 A2984 RMK LTNG DIST ALQDS SLP107 DENSITY ALT 2300FT

Closest aviation forecast (TAF) to Yarbo Airport

Forecast is more than 6 hours old.

Closest forecast is Yorkton Municipal Airport, 38.5 nm (71.3 km) NNW. Retrieved 2020-08-13 00:00 UTC (8 hours ago):

TAF CYQV 122338Z 1300/1306 15012G22KT P6SM -SHRA BKN120 OVC160 PROB30 1300/1302 VRB18G28KT 3SM TSRA OVC030CB FM130200 20008KT P6SM SCT020 BKN040 TEMPO 1302/1306 5SM -SHRA VCTS BKN020CB BKN040 RMK FCST BASED ON AUTO OBS NXT FCST WILL BE ISSUED AT 131145Z